| Date | Time | Temp. (oF) | Dew Point (oF) | Rel. Hum. (%) | Press. (in.) | Wind Dir. | Wind Speed (mph) | Hourly Rainfall (in.) |
|
|---|---|---|---|---|---|---|---|---|---|
| 1 | 05/01 | 00:00 | 62 | 53 | 73 | 29.79 | SW | 0 | 0.00 |
| 2 | 04/30 | 23:00 | 64 | 52 | 67 | 29.79 | SSW | 0 | 0.00 |
| 3 | 04/30 | 22:00 | 68 | 52 | 58 | 29.78 | SSW | 0 | 0.00 |
| 4 | 04/30 | 21:00 | 72 | 52 | 51 | 29.76 | SW | 3 | 0.00 |
| 5 | 04/30 | 20:00 | 78 | 51 | 40 | 29.74 | SSW | 2 | 0.00 |
| 6 | 04/30 | 19:00 | 80 | 51 | 37 | 29.72 | SW | 4 | 0.00 |
| 7 | 04/30 | 18:00 | 82 | 52 | 37 | 29.73 | SSW | 4 | 0.00 |
| 8 | 04/30 | 17:00 | 83 | 52 | 35 | 29.73 | WSW | 5 | 0.00 |
| 9 | 04/30 | 16:00 | 81 | 49 | 34 | 29.75 | SW | 8 | 0.00 |
| 10 | 04/30 | 15:00 | 80 | 48 | 34 | 29.78 | W | 4 | 0.00 |
| 11 | 04/30 | 14:00 | 79 | 47 | 34 | 29.79 | WSW | 6 | 0.00 |
| 12 | 04/30 | 13:00 | 78 | 45 | 32 | 29.82 | SW | 5 | 0.00 |
| 13 | 04/30 | 12:00 | 76 | 43 | 32 | 29.85 | S | 7 | 0.00 |
| 14 | 04/30 | 11:00 | 72 | 44 | 38 | 29.88 | SSW | 8 | 0.00 |
| 15 | 04/30 | 10:00 | 67 | 45 | 47 | 29.90 | WSW | 3 | 0.00 |
| 16 | 04/30 | 09:00 | 59 | 44 | 59 | 29.92 | NE | 0 | 0.00 |
| 17 | 04/30 | 08:00 | 50 | 44 | 82 | 29.93 | WSW | 2 | 0.00 |
| 18 | 04/30 | 07:00 | 44 | 40 | 88 | 29.93 | WSW | 0 | 0.00 |
| 19 | 04/30 | 06:00 | 43 | 38 | 85 | 29.92 | SW | 0 | 0.00 |
| 20 | 04/30 | 05:00 | 45 | 38 | 79 | 29.90 | SW | 0 | 0.00 |
| 21 | 04/30 | 04:00 | 47 | 39 | 76 | 29.89 | SW | 0 | 0.00 |
| 22 | 04/30 | 03:00 | 48 | 38 | 69 | 29.87 | SW | 0 | 0.00 |
| 23 | 04/30 | 02:00 | 50 | 36 | 60 | 29.87 | W | 0 | 0.00 |
| 24 | 04/30 | 01:00 | 54 | 36 | 52 | 29.87 | WNW | 1 | 0.00 |